createdAt,value
2023-04-21T16:47:16.958Z,99171.40
2023-04-21T16:49:45.139Z,99173.20
2023-04-21T16:52:13.136Z,99174.40
2023-04-21T16:54:41.187Z,99169.20
2023-04-21T16:57:09.390Z,99177.80
2023-04-21T16:59:37.427Z,99177.40
2023-04-21T17:02:05.395Z,99179.60
2023-04-21T17:04:33.659Z,99177.00
2023-04-21T17:07:01.628Z,99175.60
2023-04-21T17:09:29.561Z,99178.80
2023-04-21T17:11:57.739Z,99175.80
2023-04-21T17:14:25.598Z,99177.00
2023-04-21T17:16:54.526Z,99180.60
2023-04-21T17:19:22.875Z,99174.20
2023-04-21T17:21:50.888Z,99179.40
2023-04-21T17:24:18.963Z,99184.60
2023-04-21T17:26:46.796Z,99180.40
2023-04-21T17:29:14.690Z,99181.60
2023-04-21T17:31:42.560Z,99188.20
2023-04-21T17:34:10.391Z,99184.60
2023-04-21T17:36:40.202Z,99188.00
2023-04-21T17:39:08.398Z,99179.40
2023-04-21T17:41:37.120Z,99186.80
2023-04-21T17:44:04.989Z,99181.40
2023-04-21T17:46:32.861Z,99185.20
2023-04-21T17:49:00.731Z,99190.80
2023-04-21T17:51:28.751Z,99191.60
2023-04-21T17:53:56.683Z,99190.80
2023-04-21T17:56:24.577Z,99192.60
2023-04-21T17:58:52.388Z,99190.20
2023-04-21T18:01:20.990Z,99196.40
2023-04-21T18:03:50.768Z,99198.20
2023-04-21T18:06:18.844Z,99197.00
2023-04-21T18:08:46.624Z,99207.00
2023-04-21T18:11:14.554Z,99203.40
2023-04-21T18:13:42.365Z,99206.00
2023-04-21T18:16:10.236Z,99201.00
2023-04-21T18:18:38.290Z,99205.80
2023-04-21T18:21:06.314Z,99209.80
2023-04-21T18:23:34.874Z,99200.20
2023-04-21T18:26:02.687Z,99212.20
2023-04-21T18:28:32.124Z,99205.80
2023-04-21T18:31:01.106Z,99208.80
2023-04-21T18:33:33.532Z,99209.40
2023-04-21T18:36:01.430Z,99213.40
2023-04-21T18:38:29.217Z,99213.20
2023-04-21T18:40:57.126Z,99212.00
2023-04-21T18:43:25.451Z,99210.00
2023-04-21T18:45:53.531Z,99218.40
2023-04-21T18:48:21.399Z,99215.60
2023-04-21T18:50:49.301Z,99218.20
2023-04-21T18:53:17.168Z,99212.00
2023-04-21T18:55:45.655Z,99212.40
2023-04-21T18:58:13.672Z,99212.60
2023-04-21T19:00:41.580Z,99212.20
2023-04-21T19:03:09.507Z,99210.40
2023-04-21T19:05:39.280Z,99206.80
2023-04-21T19:08:09.357Z,99211.80
2023-04-21T19:10:38.061Z,99209.40
2023-04-21T19:13:06.056Z,99213.40
2023-04-21T19:15:34.000Z,99213.20
2023-04-21T19:18:01.927Z,99211.40
2023-04-21T19:20:30.276Z,99209.00
2023-04-21T19:22:58.175Z,99209.20
2023-04-21T19:25:26.062Z,99213.40
2023-04-21T19:27:54.194Z,99215.60
2023-04-21T19:30:22.157Z,99209.80
2023-04-21T19:32:50.079Z,99211.00
2023-04-21T19:35:18.070Z,99214.80
2023-04-21T19:37:45.845Z,99212.60
2023-04-21T19:40:13.732Z,99204.40
2023-04-21T19:42:41.978Z,99203.40
2023-04-21T19:45:10.479Z,99197.60
2023-04-21T19:47:38.570Z,99197.40
2023-04-21T19:50:08.364Z,99202.60
2023-04-21T19:52:36.333Z,99198.60
2023-04-21T19:55:04.839Z,99194.40
2023-04-21T19:57:32.651Z,99192.60
2023-04-21T20:00:00.390Z,99196.40
2023-04-21T20:02:28.591Z,99192.60
2023-04-21T20:04:56.706Z,99197.80
2023-04-21T20:07:24.957Z,99193.60
2023-04-21T20:09:53.065Z,99190.40
2023-04-21T20:12:21.101Z,99196.80
2023-04-21T20:14:49.085Z,99195.40
2023-04-21T20:17:17.074Z,99196.60
2023-04-21T20:19:46.882Z,99201.20
2023-04-21T20:22:14.728Z,99200.00
2023-04-21T20:24:42.585Z,99205.60
2023-04-21T20:27:10.416Z,99193.80
2023-04-21T20:29:38.562Z,99199.80
2023-04-21T20:32:06.853Z,99197.60
2023-04-21T20:34:36.238Z,99197.20
2023-04-21T20:37:05.821Z,99199.40
2023-04-21T20:39:33.781Z,99195.00
2023-04-21T20:42:12.492Z,99196.20
2023-04-21T20:44:42.959Z,99197.00
2023-04-21T20:47:11.667Z,99199.20
2023-04-21T20:49:40.121Z,99198.00
2023-04-21T20:52:09.191Z,99197.00
2023-04-21T20:54:37.691Z,99195.80
2023-04-21T20:57:07.635Z,99198.80
2023-04-21T20:59:35.755Z,99199.00
2023-04-21T21:02:04.305Z,99201.80
2023-04-21T21:04:32.742Z,99199.00
2023-04-21T21:07:01.856Z,99203.60
2023-04-21T21:09:30.557Z,99203.40
2023-04-21T21:11:58.557Z,99198.20
2023-04-21T21:14:26.583Z,99195.00
2023-04-21T21:16:55.409Z,99202.80
2023-04-21T21:19:23.497Z,99203.80
2023-04-21T21:21:51.409Z,99198.40
2023-04-21T21:24:19.300Z,99205.00
2023-04-21T21:26:47.210Z,99199.40
2023-04-21T21:29:15.179Z,99191.20
2023-04-21T21:31:43.423Z,99189.80
2023-04-21T21:34:11.394Z,99193.40
2023-04-21T21:36:39.256Z,99189.80
2023-04-21T21:39:10.428Z,99190.80
2023-04-21T21:41:39.229Z,99189.80
2023-04-21T21:44:07.902Z,99188.60
2023-04-21T21:46:36.456Z,99188.20
2023-04-21T21:49:04.498Z,99185.20
2023-04-21T21:51:32.449Z,99186.40
2023-04-21T21:54:00.246Z,99189.40
2023-04-21T21:56:28.116Z,99192.80
2023-04-21T21:58:56.164Z,99192.20
2023-04-21T22:01:24.117Z,99195.20
2023-04-21T22:03:53.786Z,99195.00
2023-04-21T22:06:22.499Z,99190.60
2023-04-21T22:08:51.309Z,99195.20
2023-04-21T22:11:19.998Z,99196.00
2023-04-21T22:13:47.776Z,99201.40
2023-04-21T22:16:16.963Z,99199.20
2023-04-21T22:18:45.130Z,99197.40
2023-04-21T22:21:12.998Z,99190.40
2023-04-21T22:23:40.930Z,99189.80
2023-04-21T22:26:09.549Z,99195.40
2023-04-21T22:28:37.477Z,99191.20
2023-04-21T22:31:05.594Z,99192.80
2023-04-21T22:33:33.399Z,99189.80
2023-04-21T22:36:01.276Z,99184.60
2023-04-21T22:38:29.142Z,99186.40
2023-04-21T22:40:57.171Z,99184.20
2023-04-21T22:43:25.061Z,99186.00
2023-04-21T22:45:52.993Z,99185.80
2023-04-21T22:48:20.829Z,99188.20
2023-04-21T22:50:48.704Z,99193.20
2023-04-21T22:53:16.634Z,99198.00
2023-04-21T22:55:44.516Z,99188.20
2023-04-21T22:58:14.358Z,99184.60
2023-04-21T23:00:44.088Z,99185.80
2023-04-21T23:03:11.976Z,99193.20
2023-04-21T23:05:40.245Z,99187.00
2023-04-21T23:08:08.250Z,99186.20
2023-04-21T23:10:36.119Z,99187.40
2023-04-21T23:13:04.049Z,99185.40
2023-04-21T23:15:32.281Z,99186.60
2023-04-21T23:18:00.283Z,99183.00
2023-04-21T23:20:28.203Z,99187.20
2023-04-21T23:22:56.103Z,99183.80
2023-04-21T23:25:23.996Z,99188.60
2023-04-21T23:27:51.771Z,99185.60
2023-04-21T23:30:19.784Z,99186.20
2023-04-21T23:32:47.716Z,99187.80
2023-04-21T23:35:15.652Z,99183.20
2023-04-21T23:37:43.614Z,99180.60
2023-04-21T23:40:12.720Z,99179.80
2023-04-21T23:42:40.666Z,99181.00
2023-04-21T23:45:09.437Z,99176.80
2023-04-21T23:47:37.426Z,99179.40
2023-04-21T23:50:06.332Z,99177.80
2023-04-21T23:52:34.198Z,99180.80
2023-04-21T23:55:02.088Z,99180.00
2023-04-21T23:57:30.060Z,99171.00
2023-04-21T23:59:58.033Z,99170.60
